sensor_id;sensor_type;location;lat;lon;timestamp;P1;durP1;ratioP1;P2;durP2;ratioP2
11616;SDS011;5864;52.998;9.068;2022-11-20T00:00:41;16.95;;;10.75;;
11616;SDS011;5864;52.998;9.068;2022-11-20T00:03:09;14.15;;;8.82;;
11616;SDS011;5864;52.998;9.068;2022-11-20T00:05:36;14.32;;;9.52;;
11616;SDS011;5864;52.998;9.068;2022-11-20T00:08:04;14.40;;;9.82;;
11616;SDS011;5864;52.998;9.068;2022-11-20T00:10:32;13.23;;;8.63;;
11616;SDS011;5864;52.998;9.068;2022-11-20T00:13:02;13.48;;;9.10;;
11616;SDS011;5864;52.998;9.068;2022-11-20T00:15:31;14.07;;;8.95;;
11616;SDS011;5864;52.998;9.068;2022-11-20T00:17:58;13.35;;;9.15;;
11616;SDS011;5864;52.998;9.068;2022-11-20T00:20:26;15.82;;;9.25;;
11616;SDS011;5864;52.998;9.068;2022-11-20T00:22:54;12.52;;;8.93;;
11616;SDS011;5864;52.998;9.068;2022-11-20T00:25:21;13.98;;;9.05;;
11616;SDS011;5864;52.998;9.068;2022-11-20T00:27:48;12.93;;;9.00;;
11616;SDS011;5864;52.998;9.068;2022-11-20T00:30:17;14.82;;;10.00;;
11616;SDS011;5864;52.998;9.068;2022-11-20T00:32:46;12.50;;;9.07;;
11616;SDS011;5864;52.998;9.068;2022-11-20T00:35:13;14.63;;;9.13;;
11616;SDS011;5864;52.998;9.068;2022-11-20T00:37:41;14.02;;;9.15;;
11616;SDS011;5864;52.998;9.068;2022-11-20T00:40:09;13.32;;;9.02;;
11616;SDS011;5864;52.998;9.068;2022-11-20T00:42:37;11.93;;;8.23;;
11616;SDS011;5864;52.998;9.068;2022-11-20T00:45:05;12.50;;;8.80;;
11616;SDS011;5864;52.998;9.068;2022-11-20T00:47:33;15.73;;;9.90;;
11616;SDS011;5864;52.998;9.068;2022-11-20T00:50:01;12.93;;;8.95;;
11616;SDS011;5864;52.998;9.068;2022-11-20T00:52:29;12.88;;;9.10;;
11616;SDS011;5864;52.998;9.068;2022-11-20T00:54:57;14.10;;;8.98;;
11616;SDS011;5864;52.998;9.068;2022-11-20T00:57:24;13.13;;;9.32;;
11616;SDS011;5864;52.998;9.068;2022-11-20T00:59:52;15.18;;;9.80;;
11616;SDS011;5864;52.998;9.068;2022-11-20T01:02:19;15.77;;;9.77;;
11616;SDS011;5864;52.998;9.068;2022-11-20T01:04:46;14.32;;;9.23;;
11616;SDS011;5864;52.998;9.068;2022-11-20T01:07:15;15.27;;;9.95;;
11616;SDS011;5864;52.998;9.068;2022-11-20T01:09:43;12.27;;;8.85;;
11616;SDS011;5864;52.998;9.068;2022-11-20T01:12:10;12.32;;;9.52;;
11616;SDS011;5864;52.998;9.068;2022-11-20T01:14:38;14.63;;;9.25;;
11616;SDS011;5864;52.998;9.068;2022-11-20T01:17:05;13.68;;;9.40;;
11616;SDS011;5864;52.998;9.068;2022-11-20T01:19:32;13.47;;;8.87;;
11616;SDS011;5864;52.998;9.068;2022-11-20T01:22:00;14.07;;;9.93;;
11616;SDS011;5864;52.998;9.068;2022-11-20T01:24:29;14.00;;;8.85;;
11616;SDS011;5864;52.998;9.068;2022-11-20T01:26:56;13.52;;;9.13;;
11616;SDS011;5864;52.998;9.068;2022-11-20T01:29:24;14.05;;;9.50;;
11616;SDS011;5864;52.998;9.068;2022-11-20T01:31:52;16.80;;;9.98;;
11616;SDS011;5864;52.998;9.068;2022-11-20T01:34:20;14.07;;;9.23;;
11616;SDS011;5864;52.998;9.068;2022-11-20T01:36:49;13.90;;;9.50;;
11616;SDS011;5864;52.998;9.068;2022-11-20T01:39:17;12.93;;;9.23;;
11616;SDS011;5864;52.998;9.068;2022-11-20T01:41:48;14.02;;;9.73;;
11616;SDS011;5864;52.998;9.068;2022-11-20T01:44:48;14.05;;;10.60;;
11616;SDS011;5864;52.998;9.068;2022-11-20T01:47:20;12.65;;;9.35;;
11616;SDS011;5864;52.998;9.068;2022-11-20T01:49:53;12.93;;;9.35;;
11616;SDS011;5864;52.998;9.068;2022-11-20T01:52:26;13.15;;;9.63;;
11616;SDS011;5864;52.998;9.068;2022-11-20T01:54:58;17.60;;;9.93;;
11616;SDS011;5864;52.998;9.068;2022-11-20T01:57:31;13.32;;;9.80;;
11616;SDS011;5864;52.998;9.068;2022-11-20T02:00:04;14.30;;;9.80;;
11616;SDS011;5864;52.998;9.068;2022-11-20T02:02:33;14.18;;;10.15;;
11616;SDS011;5864;52.998;9.068;2022-11-20T02:05:03;14.80;;;9.45;;
11616;SDS011;5864;52.998;9.068;2022-11-20T02:07:37;15.60;;;9.67;;
11616;SDS011;5864;52.998;9.068;2022-11-20T02:10:05;14.77;;;9.47;;
11616;SDS011;5864;52.998;9.068;2022-11-20T02:12:34;12.95;;;9.45;;
11616;SDS011;5864;52.998;9.068;2022-11-20T02:15:19;14.40;;;10.77;;
11616;SDS011;5864;52.998;9.068;2022-11-20T02:17:47;14.25;;;9.90;;
11616;SDS011;5864;52.998;9.068;2022-11-20T02:20:15;16.30;;;10.57;;
11616;SDS011;5864;52.998;9.068;2022-11-20T02:22:44;12.85;;;9.82;;
11616;SDS011;5864;52.998;9.068;2022-11-20T02:25:20;13.65;;;9.70;;
11616;SDS011;5864;52.998;9.068;2022-11-20T02:27:48;14.82;;;10.02;;
11616;SDS011;5864;52.998;9.068;2022-11-20T02:30:17;13.52;;;9.60;;
11616;SDS011;5864;52.998;9.068;2022-11-20T02:32:45;16.17;;;10.77;;
11616;SDS011;5864;52.998;9.068;2022-11-20T02:38:06;14.55;;;10.13;;
11616;SDS011;5864;52.998;9.068;2022-11-20T02:40:36;14.85;;;10.63;;
11616;SDS011;5864;52.998;9.068;2022-11-20T02:43:03;16.30;;;10.27;;
11616;SDS011;5864;52.998;9.068;2022-11-20T02:45:31;15.90;;;10.75;;
11616;SDS011;5864;52.998;9.068;2022-11-20T02:47:58;15.15;;;10.32;;
11616;SDS011;5864;52.998;9.068;2022-11-20T02:50:26;17.50;;;9.98;;
11616;SDS011;5864;52.998;9.068;2022-11-20T02:52:53;18.15;;;10.20;;
11616;SDS011;5864;52.998;9.068;2022-11-20T02:55:21;15.15;;;9.32;;
11616;SDS011;5864;52.998;9.068;2022-11-20T02:57:50;14.43;;;10.00;;
11616;SDS011;5864;52.998;9.068;2022-11-20T03:00:17;14.27;;;10.10;;
11616;SDS011;5864;52.998;9.068;2022-11-20T03:02:45;14.68;;;10.20;;
11616;SDS011;5864;52.998;9.068;2022-11-20T03:05:13;13.67;;;9.50;;
11616;SDS011;5864;52.998;9.068;2022-11-20T03:07:40;16.67;;;10.20;;
11616;SDS011;5864;52.998;9.068;2022-11-20T03:10:08;15.50;;;9.63;;
11616;SDS011;5864;52.998;9.068;2022-11-20T03:12:36;13.95;;;9.73;;
11616;SDS011;5864;52.998;9.068;2022-11-20T03:15:05;14.43;;;9.65;;
11616;SDS011;5864;52.998;9.068;2022-11-20T03:17:33;14.77;;;10.23;;
11616;SDS011;5864;52.998;9.068;2022-11-20T03:20:00;14.20;;;9.80;;
11616;SDS011;5864;52.998;9.068;2022-11-20T03:22:28;14.50;;;9.63;;
11616;SDS011;5864;52.998;9.068;2022-11-20T03:24:56;14.73;;;10.10;;
11616;SDS011;5864;52.998;9.068;2022-11-20T03:27:23;13.68;;;9.45;;
11616;SDS011;5864;52.998;9.068;2022-11-20T03:29:51;14.90;;;9.90;;
11616;SDS011;5864;52.998;9.068;2022-11-20T03:32:20;15.02;;;9.85;;
11616;SDS011;5864;52.998;9.068;2022-11-20T03:34:47;15.20;;;9.75;;
11616;SDS011;5864;52.998;9.068;2022-11-20T03:37:15;14.05;;;9.32;;
11616;SDS011;5864;52.998;9.068;2022-11-20T03:39:42;16.30;;;10.10;;
11616;SDS011;5864;52.998;9.068;2022-11-20T03:42:09;14.38;;;9.77;;
11616;SDS011;5864;52.998;9.068;2022-11-20T03:44:57;13.57;;;8.70;;
11616;SDS011;5864;52.998;9.068;2022-11-20T03:47:26;13.00;;;8.38;;
11616;SDS011;5864;52.998;9.068;2022-11-20T03:49:54;13.20;;;9.05;;
11616;SDS011;5864;52.998;9.068;2022-11-20T03:52:21;15.68;;;10.07;;
11616;SDS011;5864;52.998;9.068;2022-11-20T03:54:49;13.80;;;8.95;;
11616;SDS011;5864;52.998;9.068;2022-11-20T03:57:16;14.18;;;9.57;;
11616;SDS011;5864;52.998;9.068;2022-11-20T03:59:43;13.00;;;8.70;;
11616;SDS011;5864;52.998;9.068;2022-11-20T04:02:11;14.20;;;9.40;;
11616;SDS011;5864;52.998;9.068;2022-11-20T04:04:40;14.40;;;9.18;;
11616;SDS011;5864;52.998;9.068;2022-11-20T04:07:07;13.68;;;9.98;;
11616;SDS011;5864;52.998;9.068;2022-11-20T04:09:35;13.45;;;9.95;;
11616;SDS011;5864;52.998;9.068;2022-11-20T04:12:02;13.80;;;9.13;;
11616;SDS011;5864;52.998;9.068;2022-11-20T04:14:31;15.15;;;9.52;;
11616;SDS011;5864;52.998;9.068;2022-11-20T04:16:58;13.32;;;9.00;;
11616;SDS011;5864;52.998;9.068;2022-11-20T04:19:26;11.65;;;8.85;;
11616;SDS011;5864;52.998;9.068;2022-11-20T04:21:55;12.45;;;8.55;;
11616;SDS011;5864;52.998;9.068;2022-11-20T04:24:22;13.88;;;9.15;;
11616;SDS011;5864;52.998;9.068;2022-11-20T04:26:49;13.88;;;9.05;;
11616;SDS011;5864;52.998;9.068;2022-11-20T04:29:17;13.43;;;9.02;;
11616;SDS011;5864;52.998;9.068;2022-11-20T04:31:44;14.15;;;9.00;;
11616;SDS011;5864;52.998;9.068;2022-11-20T04:34:12;15.57;;;8.53;;
11616;SDS011;5864;52.998;9.068;2022-11-20T04:36:39;13.60;;;9.20;;
11616;SDS011;5864;52.998;9.068;2022-11-20T04:39:12;12.73;;;9.00;;
11616;SDS011;5864;52.998;9.068;2022-11-20T04:41:42;15.32;;;9.27;;
11616;SDS011;5864;52.998;9.068;2022-11-20T04:44:10;12.75;;;9.10;;
11616;SDS011;5864;52.998;9.068;2022-11-20T04:46:38;14.63;;;9.30;;
11616;SDS011;5864;52.998;9.068;2022-11-20T04:49:06;14.33;;;8.60;;
11616;SDS011;5864;52.998;9.068;2022-11-20T04:51:34;13.80;;;9.37;;
11616;SDS011;5864;52.998;9.068;2022-11-20T04:54:02;13.45;;;8.73;;
11616;SDS011;5864;52.998;9.068;2022-11-20T04:56:31;16.03;;;8.97;;
11616;SDS011;5864;52.998;9.068;2022-11-20T04:58:59;12.83;;;8.87;;
11616;SDS011;5864;52.998;9.068;2022-11-20T05:01:28;16.15;;;8.98;;
11616;SDS011;5864;52.998;9.068;2022-11-20T05:03:55;12.50;;;8.88;;
11616;SDS011;5864;52.998;9.068;2022-11-20T05:06:23;14.27;;;9.10;;
11616;SDS011;5864;52.998;9.068;2022-11-20T05:08:50;12.00;;;8.52;;
11616;SDS011;5864;52.998;9.068;2022-11-20T05:11:19;15.75;;;8.73;;
11616;SDS011;5864;52.998;9.068;2022-11-20T05:13:49;14.23;;;8.25;;
11616;SDS011;5864;52.998;9.068;2022-11-20T05:16:17;13.68;;;8.63;;
11616;SDS011;5864;52.998;9.068;2022-11-20T05:18:46;11.55;;;8.75;;
11616;SDS011;5864;52.998;9.068;2022-11-20T05:21:14;10.63;;;7.97;;
11616;SDS011;5864;52.998;9.068;2022-11-20T05:23:42;11.02;;;7.65;;
11616;SDS011;5864;52.998;9.068;2022-11-20T05:26:13;12.00;;;7.65;;
11616;SDS011;5864;52.998;9.068;2022-11-20T05:28:42;14.13;;;8.45;;
11616;SDS011;5864;52.998;9.068;2022-11-20T05:31:12;12.05;;;7.97;;
11616;SDS011;5864;52.998;9.068;2022-11-20T05:33:41;13.02;;;8.45;;
11616;SDS011;5864;52.998;9.068;2022-11-20T05:36:09;13.18;;;8.02;;
11616;SDS011;5864;52.998;9.068;2022-11-20T05:38:38;11.40;;;7.87;;
11616;SDS011;5864;52.998;9.068;2022-11-20T05:41:07;12.45;;;7.60;;
11616;SDS011;5864;52.998;9.068;2022-11-20T05:43:36;14.87;;;7.70;;
11616;SDS011;5864;52.998;9.068;2022-11-20T05:46:05;13.63;;;7.43;;
11616;SDS011;5864;52.998;9.068;2022-11-20T05:48:35;15.43;;;8.27;;
11616;SDS011;5864;52.998;9.068;2022-11-20T05:51:04;9.07;;;7.00;;
11616;SDS011;5864;52.998;9.068;2022-11-20T05:53:33;10.67;;;7.20;;
11616;SDS011;5864;52.998;9.068;2022-11-20T05:56:01;9.43;;;6.53;;
11616;SDS011;5864;52.998;9.068;2022-11-20T05:58:30;10.15;;;7.25;;
11616;SDS011;5864;52.998;9.068;2022-11-20T06:01:03;11.23;;;7.83;;
11616;SDS011;5864;52.998;9.068;2022-11-20T06:03:32;11.60;;;7.07;;
11616;SDS011;5864;52.998;9.068;2022-11-20T06:06:01;11.73;;;6.93;;
11616;SDS011;5864;52.998;9.068;2022-11-20T06:08:30;11.00;;;6.73;;
11616;SDS011;5864;52.998;9.068;2022-11-20T06:10:58;11.52;;;7.22;;
11616;SDS011;5864;52.998;9.068;2022-11-20T06:13:29;12.68;;;7.30;;
11616;SDS011;5864;52.998;9.068;2022-11-20T06:15:56;10.30;;;7.03;;
11616;SDS011;5864;52.998;9.068;2022-11-20T06:18:25;11.60;;;7.28;;
11616;SDS011;5864;52.998;9.068;2022-11-20T06:20:58;13.77;;;7.40;;
11616;SDS011;5864;52.998;9.068;2022-11-20T06:23:29;9.93;;;7.10;;
11616;SDS011;5864;52.998;9.068;2022-11-20T06:25:57;14.75;;;7.90;;
11616;SDS011;5864;52.998;9.068;2022-11-20T06:28:25;10.52;;;6.85;;
11616;SDS011;5864;52.998;9.068;2022-11-20T06:30:52;13.73;;;7.85;;
11616;SDS011;5864;52.998;9.068;2022-11-20T06:33:19;11.30;;;6.93;;
11616;SDS011;5864;52.998;9.068;2022-11-20T06:35:47;11.00;;;6.67;;
11616;SDS011;5864;52.998;9.068;2022-11-20T06:38:16;11.73;;;7.70;;
11616;SDS011;5864;52.998;9.068;2022-11-20T06:40:43;10.90;;;7.57;;
11616;SDS011;5864;52.998;9.068;2022-11-20T06:43:11;10.52;;;6.82;;
11616;SDS011;5864;52.998;9.068;2022-11-20T06:45:38;12.47;;;7.90;;
11616;SDS011;5864;52.998;9.068;2022-11-20T06:48:06;9.80;;;6.47;;
11616;SDS011;5864;52.998;9.068;2022-11-20T06:50:33;14.63;;;7.27;;
11616;SDS011;5864;52.998;9.068;2022-11-20T06:53:01;13.15;;;7.55;;
11616;SDS011;5864;52.998;9.068;2022-11-20T06:55:30;10.30;;;6.77;;
11616;SDS011;5864;52.998;9.068;2022-11-20T06:57:58;10.07;;;6.47;;
11616;SDS011;5864;52.998;9.068;2022-11-20T07:00:26;12.17;;;7.73;;
11616;SDS011;5864;52.998;9.068;2022-11-20T07:02:53;12.35;;;7.00;;
11616;SDS011;5864;52.998;9.068;2022-11-20T07:05:20;10.10;;;7.13;;
11616;SDS011;5864;52.998;9.068;2022-11-20T07:07:48;9.97;;;7.03;;
11616;SDS011;5864;52.998;9.068;2022-11-20T07:10:15;10.88;;;7.05;;
11616;SDS011;5864;52.998;9.068;2022-11-20T07:12:50;10.48;;;7.10;;
11616;SDS011;5864;52.998;9.068;2022-11-20T07:15:17;12.00;;;7.07;;
11616;SDS011;5864;52.998;9.068;2022-11-20T07:17:45;10.07;;;6.90;;
11616;SDS011;5864;52.998;9.068;2022-11-20T07:20:13;10.43;;;7.30;;
11616;SDS011;5864;52.998;9.068;2022-11-20T07:22:41;11.45;;;7.00;;
11616;SDS011;5864;52.998;9.068;2022-11-20T07:25:12;8.52;;;6.43;;
11616;SDS011;5864;52.998;9.068;2022-11-20T07:27:39;9.65;;;6.68;;
11616;SDS011;5864;52.998;9.068;2022-11-20T07:30:08;10.30;;;6.87;;
11616;SDS011;5864;52.998;9.068;2022-11-20T07:32:36;9.07;;;6.78;;
11616;SDS011;5864;52.998;9.068;2022-11-20T07:35:05;10.13;;;7.38;;
11616;SDS011;5864;52.998;9.068;2022-11-20T07:37:33;9.95;;;6.35;;
11616;SDS011;5864;52.998;9.068;2022-11-20T07:40:01;9.57;;;6.55;;
11616;SDS011;5864;52.998;9.068;2022-11-20T07:42:29;10.40;;;6.97;;
11616;SDS011;5864;52.998;9.068;2022-11-20T07:44:56;13.18;;;8.45;;
11616;SDS011;5864;52.998;9.068;2022-11-20T07:47:25;9.38;;;7.10;;
11616;SDS011;5864;52.998;9.068;2022-11-20T07:49:52;11.43;;;7.80;;
11616;SDS011;5864;52.998;9.068;2022-11-20T07:52:20;11.10;;;7.57;;
11616;SDS011;5864;52.998;9.068;2022-11-20T07:54:47;11.07;;;7.38;;
11616;SDS011;5864;52.998;9.068;2022-11-20T07:57:15;13.02;;;8.73;;
11616;SDS011;5864;52.998;9.068;2022-11-20T07:59:42;12.48;;;8.10;;
11616;SDS011;5864;52.998;9.068;2022-11-20T08:02:11;10.75;;;7.97;;
11616;SDS011;5864;52.998;9.068;2022-11-20T08:04:40;12.37;;;7.90;;
11616;SDS011;5864;52.998;9.068;2022-11-20T08:07:07;11.45;;;8.02;;
11616;SDS011;5864;52.998;9.068;2022-11-20T08:09:35;13.23;;;7.80;;
11616;SDS011;5864;52.998;9.068;2022-11-20T08:12:02;9.73;;;6.35;;
11616;SDS011;5864;52.998;9.068;2022-11-20T08:14:47;9.10;;;7.20;;
11616;SDS011;5864;52.998;9.068;2022-11-20T08:17:15;10.87;;;6.90;;
11616;SDS011;5864;52.998;9.068;2022-11-20T08:19:44;12.30;;;7.10;;
11616;SDS011;5864;52.998;9.068;2022-11-20T08:22:12;11.98;;;7.90;;
11616;SDS011;5864;52.998;9.068;2022-11-20T08:24:40;10.47;;;6.77;;
11616;SDS011;5864;52.998;9.068;2022-11-20T08:27:07;10.00;;;7.77;;
11616;SDS011;5864;52.998;9.068;2022-11-20T08:29:35;9.47;;;6.97;;
11616;SDS011;5864;52.998;9.068;2022-11-20T08:32:03;11.30;;;7.70;;
11616;SDS011;5864;52.998;9.068;2022-11-20T08:34:30;9.07;;;6.67;;
11616;SDS011;5864;52.998;9.068;2022-11-20T08:36:59;10.00;;;6.80;;
11616;SDS011;5864;52.998;9.068;2022-11-20T08:39:28;9.77;;;7.23;;
11616;SDS011;5864;52.998;9.068;2022-11-20T08:41:56;9.00;;;6.40;;
11616;SDS011;5864;52.998;9.068;2022-11-20T08:44:23;8.83;;;6.50;;
11616;SDS011;5864;52.998;9.068;2022-11-20T08:46:51;9.63;;;7.60;;
11616;SDS011;5864;52.998;9.068;2022-11-20T08:49:18;11.35;;;6.85;;
11616;SDS011;5864;52.998;9.068;2022-11-20T08:51:47;8.03;;;6.77;;
11616;SDS011;5864;52.998;9.068;2022-11-20T08:54:20;10.30;;;7.30;;
11616;SDS011;5864;52.998;9.068;2022-11-20T08:56:48;8.97;;;7.40;;
11616;SDS011;5864;52.998;9.068;2022-11-20T08:59:15;10.73;;;7.40;;
11616;SDS011;5864;52.998;9.068;2022-11-20T09:01:43;9.57;;;7.13;;
11616;SDS011;5864;52.998;9.068;2022-11-20T09:04:10;9.53;;;7.43;;
11616;SDS011;5864;52.998;9.068;2022-11-20T09:06:39;10.40;;;7.17;;
11616;SDS011;5864;52.998;9.068;2022-11-20T09:09:07;10.43;;;8.13;;
11616;SDS011;5864;52.998;9.068;2022-11-20T09:11:36;9.23;;;6.80;;
11616;SDS011;5864;52.998;9.068;2022-11-20T09:14:03;9.13;;;6.47;;
11616;SDS011;5864;52.998;9.068;2022-11-20T09:16:31;10.83;;;6.80;;
11616;SDS011;5864;52.998;9.068;2022-11-20T09:18:58;10.47;;;7.30;;
11616;SDS011;5864;52.998;9.068;2022-11-20T09:21:26;8.40;;;6.30;;
11616;SDS011;5864;52.998;9.068;2022-11-20T09:23:53;9.40;;;6.87;;
11616;SDS011;5864;52.998;9.068;2022-11-20T09:26:21;12.70;;;7.10;;
11616;SDS011;5864;52.998;9.068;2022-11-20T09:28:50;9.17;;;6.40;;
11616;SDS011;5864;52.998;9.068;2022-11-20T09:31:19;9.77;;;6.57;;
11616;SDS011;5864;52.998;9.068;2022-11-20T09:33:49;10.40;;;7.03;;
11616;SDS011;5864;52.998;9.068;2022-11-20T09:36:17;10.10;;;6.90;;
11616;SDS011;5864;52.998;9.068;2022-11-20T09:38:45;10.20;;;7.60;;
11616;SDS011;5864;52.998;9.068;2022-11-20T09:44:23;8.53;;;6.67;;
11616;SDS011;5864;52.998;9.068;2022-11-20T09:47:01;9.63;;;6.90;;
11616;SDS011;5864;52.998;9.068;2022-11-20T09:49:36;9.70;;;6.80;;
11616;SDS011;5864;52.998;9.068;2022-11-20T09:52:22;9.23;;;6.73;;
11616;SDS011;5864;52.998;9.068;2022-11-20T09:54:55;14.27;;;7.83;;
11616;SDS011;5864;52.998;9.068;2022-11-20T09:57:25;11.40;;;7.63;;
11616;SDS011;5864;52.998;9.068;2022-11-20T10:00:00;9.43;;;7.00;;
11616;SDS011;5864;52.998;9.068;2022-11-20T10:02:34;9.93;;;6.67;;
11616;SDS011;5864;52.998;9.068;2022-11-20T10:05:09;10.03;;;7.43;;
11616;SDS011;5864;52.998;9.068;2022-11-20T10:07:40;10.30;;;7.27;;
11616;SDS011;5864;52.998;9.068;2022-11-20T10:10:14;13.27;;;7.60;;
11616;SDS011;5864;52.998;9.068;2022-11-20T10:12:48;9.10;;;6.50;;
11616;SDS011;5864;52.998;9.068;2022-11-20T10:15:31;11.53;;;7.70;;
11616;SDS011;5864;52.998;9.068;2022-11-20T10:18:09;10.87;;;7.23;;
11616;SDS011;5864;52.998;9.068;2022-11-20T10:20:45;10.30;;;7.50;;
11616;SDS011;5864;52.998;9.068;2022-11-20T10:23:32;13.30;;;8.77;;
11616;SDS011;5864;52.998;9.068;2022-11-20T10:26:17;15.57;;;10.20;;
11616;SDS011;5864;52.998;9.068;2022-11-20T10:28:53;17.87;;;10.67;;
11616;SDS011;5864;52.998;9.068;2022-11-20T10:31:35;14.57;;;9.07;;
11616;SDS011;5864;52.998;9.068;2022-11-20T10:34:06;9.80;;;7.17;;
11616;SDS011;5864;52.998;9.068;2022-11-20T10:36:40;10.80;;;7.50;;
11616;SDS011;5864;52.998;9.068;2022-11-20T10:39:15;11.93;;;8.30;;
11616;SDS011;5864;52.998;9.068;2022-11-20T10:41:49;11.03;;;7.90;;
11616;SDS011;5864;52.998;9.068;2022-11-20T10:44:20;10.10;;;7.40;;
11616;SDS011;5864;52.998;9.068;2022-11-20T10:47:04;12.20;;;7.67;;
11616;SDS011;5864;52.998;9.068;2022-11-20T10:49:37;10.20;;;7.20;;
11616;SDS011;5864;52.998;9.068;2022-11-20T10:52:06;9.60;;;7.33;;
11616;SDS011;5864;52.998;9.068;2022-11-20T10:54:42;9.50;;;7.40;;
11616;SDS011;5864;52.998;9.068;2022-11-20T10:57:17;10.47;;;7.57;;
11616;SDS011;5864;52.998;9.068;2022-11-20T11:00:02;10.40;;;7.50;;
11616;SDS011;5864;52.998;9.068;2022-11-20T11:02:33;15.13;;;9.77;;
11616;SDS011;5864;52.998;9.068;2022-11-20T11:05:10;16.23;;;10.97;;
11616;SDS011;5864;52.998;9.068;2022-11-20T11:07:44;12.97;;;8.70;;
11616;SDS011;5864;52.998;9.068;2022-11-20T11:10:14;10.30;;;7.77;;
11616;SDS011;5864;52.998;9.068;2022-11-20T11:12:46;10.70;;;7.57;;
11616;SDS011;5864;52.998;9.068;2022-11-20T11:15:24;10.37;;;7.40;;
11616;SDS011;5864;52.998;9.068;2022-11-20T11:17:54;12.60;;;8.07;;
11616;SDS011;5864;52.998;9.068;2022-11-20T11:20:23;10.33;;;7.33;;
11616;SDS011;5864;52.998;9.068;2022-11-20T11:22:53;14.90;;;8.87;;
11616;SDS011;5864;52.998;9.068;2022-11-20T11:25:26;13.67;;;8.83;;
11616;SDS011;5864;52.998;9.068;2022-11-20T11:27:57;11.60;;;8.10;;
11616;SDS011;5864;52.998;9.068;2022-11-20T11:30:26;12.70;;;8.30;;
11616;SDS011;5864;52.998;9.068;2022-11-20T11:33:06;12.60;;;8.93;;
11616;SDS011;5864;52.998;9.068;2022-11-20T11:35:39;12.13;;;8.83;;
11616;SDS011;5864;52.998;9.068;2022-11-20T11:38:12;9.57;;;8.30;;
11616;SDS011;5864;52.998;9.068;2022-11-20T11:40:43;13.50;;;8.77;;
11616;SDS011;5864;52.998;9.068;2022-11-20T11:43:17;20.00;;;12.33;;
11616;SDS011;5864;52.998;9.068;2022-11-20T11:46:05;10.57;;;7.67;;
11616;SDS011;5864;52.998;9.068;2022-11-20T11:48:55;13.67;;;8.70;;
11616;SDS011;5864;52.998;9.068;2022-11-20T11:51:26;11.57;;;9.27;;
11616;SDS011;5864;52.998;9.068;2022-11-20T11:54:03;11.93;;;8.27;;
11616;SDS011;5864;52.998;9.068;2022-11-20T11:56:42;14.23;;;9.70;;
11616;SDS011;5864;52.998;9.068;2022-11-20T11:59:11;11.40;;;8.70;;
11616;SDS011;5864;52.998;9.068;2022-11-20T12:01:44;11.43;;;8.50;;
11616;SDS011;5864;52.998;9.068;2022-11-20T12:04:19;13.30;;;9.20;;
11616;SDS011;5864;52.998;9.068;2022-11-20T12:07:07;12.70;;;9.50;;
11616;SDS011;5864;52.998;9.068;2022-11-20T12:09:43;11.53;;;8.13;;
11616;SDS011;5864;52.998;9.068;2022-11-20T12:12:16;11.37;;;8.40;;
11616;SDS011;5864;52.998;9.068;2022-11-20T12:14:47;12.47;;;8.50;;
11616;SDS011;5864;52.998;9.068;2022-11-20T12:17:18;14.37;;;8.83;;
11616;SDS011;5864;52.998;9.068;2022-11-20T12:19:47;13.00;;;8.77;;
11616;SDS011;5864;52.998;9.068;2022-11-20T12:22:17;11.33;;;7.67;;
11616;SDS011;5864;52.998;9.068;2022-11-20T12:24:54;15.27;;;9.17;;
11616;SDS011;5864;52.998;9.068;2022-11-20T12:27:44;15.13;;;10.67;;
11616;SDS011;5864;52.998;9.068;2022-11-20T12:30:22;17.47;;;11.33;;
11616;SDS011;5864;52.998;9.068;2022-11-20T12:32:54;15.73;;;11.10;;
11616;SDS011;5864;52.998;9.068;2022-11-20T12:41:40;14.37;;;9.80;;
11616;SDS011;5864;52.998;9.068;2022-11-20T12:44:36;12.63;;;8.70;;
11616;SDS011;5864;52.998;9.068;2022-11-20T12:47:42;12.40;;;9.00;;
11616;SDS011;5864;52.998;9.068;2022-11-20T12:50:28;11.03;;;8.23;;
11616;SDS011;5864;52.998;9.068;2022-11-20T12:53:07;12.43;;;8.97;;
11616;SDS011;5864;52.998;9.068;2022-11-20T12:55:51;11.47;;;9.13;;
11616;SDS011;5864;52.998;9.068;2022-11-20T12:58:26;12.37;;;8.67;;
11616;SDS011;5864;52.998;9.068;2022-11-20T13:01:02;12.97;;;8.33;;
11616;SDS011;5864;52.998;9.068;2022-11-20T13:03:55;12.27;;;8.93;;
11616;SDS011;5864;52.998;9.068;2022-11-20T13:06:30;13.80;;;8.30;;
11616;SDS011;5864;52.998;9.068;2022-11-20T13:08:59;9.93;;;7.40;;
11616;SDS011;5864;52.998;9.068;2022-11-20T13:11:31;11.23;;;8.07;;
11616;SDS011;5864;52.998;9.068;2022-11-20T13:14:08;9.47;;;7.20;;
11616;SDS011;5864;52.998;9.068;2022-11-20T13:16:52;9.37;;;7.43;;
11616;SDS011;5864;52.998;9.068;2022-11-20T13:19:25;9.93;;;7.23;;
11616;SDS011;5864;52.998;9.068;2022-11-20T13:21:55;11.43;;;8.57;;
11616;SDS011;5864;52.998;9.068;2022-11-20T13:24:25;12.37;;;8.40;;
11616;SDS011;5864;52.998;9.068;2022-11-20T13:27:05;15.23;;;7.93;;
11616;SDS011;5864;52.998;9.068;2022-11-20T13:29:47;11.80;;;8.17;;
11616;SDS011;5864;52.998;9.068;2022-11-20T13:32:26;11.97;;;8.30;;
11616;SDS011;5864;52.998;9.068;2022-11-20T13:34:58;12.13;;;8.40;;
11616;SDS011;5864;52.998;9.068;2022-11-20T13:37:28;11.53;;;8.07;;
11616;SDS011;5864;52.998;9.068;2022-11-20T13:40:19;11.13;;;7.37;;
11616;SDS011;5864;52.998;9.068;2022-11-20T13:42:55;11.13;;;7.30;;
11616;SDS011;5864;52.998;9.068;2022-11-20T13:45:29;10.80;;;7.60;;
11616;SDS011;5864;52.998;9.068;2022-11-20T13:47:59;8.80;;;6.93;;
11616;SDS011;5864;52.998;9.068;2022-11-20T13:50:40;10.30;;;7.70;;
11616;SDS011;5864;52.998;9.068;2022-11-20T13:53:25;9.43;;;7.10;;
11616;SDS011;5864;52.998;9.068;2022-11-20T13:56:16;10.50;;;7.93;;
11616;SDS011;5864;52.998;9.068;2022-11-20T13:58:53;9.53;;;7.53;;
11616;SDS011;5864;52.998;9.068;2022-11-20T14:01:29;10.93;;;7.27;;
11616;SDS011;5864;52.998;9.068;2022-11-20T14:03:58;10.77;;;7.17;;
11616;SDS011;5864;52.998;9.068;2022-11-20T14:06:26;9.33;;;7.37;;
11616;SDS011;5864;52.998;9.068;2022-11-20T14:08:57;10.73;;;7.37;;
11616;SDS011;5864;52.998;9.068;2022-11-20T14:11:27;10.90;;;7.50;;
11616;SDS011;5864;52.998;9.068;2022-11-20T14:13:57;11.60;;;7.83;;
11616;SDS011;5864;52.998;9.068;2022-11-20T14:16:27;11.90;;;8.13;;
11616;SDS011;5864;52.998;9.068;2022-11-20T14:18:57;10.10;;;7.63;;
11616;SDS011;5864;52.998;9.068;2022-11-20T14:21:43;13.03;;;8.30;;
11616;SDS011;5864;52.998;9.068;2022-11-20T14:24:11;10.07;;;7.40;;
11616;SDS011;5864;52.998;9.068;2022-11-20T14:26:42;9.33;;;7.27;;
11616;SDS011;5864;52.998;9.068;2022-11-20T14:29:11;12.33;;;8.90;;
11616;SDS011;5864;52.998;9.068;2022-11-20T14:31:39;11.43;;;8.73;;
11616;SDS011;5864;52.998;9.068;2022-11-20T14:34:11;16.43;;;11.03;;
11616;SDS011;5864;52.998;9.068;2022-11-20T14:36:42;16.87;;;10.60;;
11616;SDS011;5864;52.998;9.068;2022-11-20T14:39:11;11.77;;;8.10;;
11616;SDS011;5864;52.998;9.068;2022-11-20T14:41:49;11.57;;;8.60;;
11616;SDS011;5864;52.998;9.068;2022-11-20T14:44:19;11.17;;;7.97;;
11616;SDS011;5864;52.998;9.068;2022-11-20T14:46:52;10.90;;;8.10;;
11616;SDS011;5864;52.998;9.068;2022-11-20T14:49:21;10.07;;;7.30;;
11616;SDS011;5864;52.998;9.068;2022-11-20T14:51:58;13.80;;;8.83;;
11616;SDS011;5864;52.998;9.068;2022-11-20T14:54:26;10.50;;;8.23;;
11616;SDS011;5864;52.998;9.068;2022-11-20T14:56:56;10.93;;;8.60;;
11616;SDS011;5864;52.998;9.068;2022-11-20T14:59:25;10.70;;;7.83;;
11616;SDS011;5864;52.998;9.068;2022-11-20T15:01:55;12.43;;;8.32;;
11616;SDS011;5864;52.998;9.068;2022-11-20T15:04:24;10.60;;;7.67;;
11616;SDS011;5864;52.998;9.068;2022-11-20T15:06:53;8.70;;;7.13;;
11616;SDS011;5864;52.998;9.068;2022-11-20T15:09:22;10.90;;;7.40;;
11616;SDS011;5864;52.998;9.068;2022-11-20T15:11:52;10.30;;;7.63;;
11616;SDS011;5864;52.998;9.068;2022-11-20T15:14:22;10.07;;;7.27;;
11616;SDS011;5864;52.998;9.068;2022-11-20T15:16:51;11.83;;;8.37;;
11616;SDS011;5864;52.998;9.068;2022-11-20T15:19:20;11.15;;;7.88;;
11616;SDS011;5864;52.998;9.068;2022-11-20T15:21:48;9.55;;;7.22;;